sensor_id;sensor_type;location;lat;lon;timestamp;P1;durP1;ratioP1;P2;durP2;ratioP2
14139;SDS011;7150;53.514;9.988;2023-03-26T00:01:18;7.33;;;3.33;;
14139;SDS011;7150;53.514;9.988;2023-03-26T00:03:45;8.47;;;2.57;;
14139;SDS011;7150;53.514;9.988;2023-03-26T00:06:17;15.90;;;3.23;;
14139;SDS011;7150;53.514;9.988;2023-03-26T00:08:45;9.60;;;2.30;;
14139;SDS011;7150;53.514;9.988;2023-03-26T00:11:12;7.80;;;2.90;;
14139;SDS011;7150;53.514;9.988;2023-03-26T00:13:39;13.30;;;3.10;;
14139;SDS011;7150;53.514;9.988;2023-03-26T00:16:07;6.60;;;2.57;;
14139;SDS011;7150;53.514;9.988;2023-03-26T00:18:34;10.47;;;2.67;;
14139;SDS011;7150;53.514;9.988;2023-03-26T00:21:01;7.37;;;2.80;;
14139;SDS011;7150;53.514;9.988;2023-03-26T00:23:29;11.80;;;3.23;;
14139;SDS011;7150;53.514;9.988;2023-03-26T00:25:56;10.00;;;3.67;;
14139;SDS011;7150;53.514;9.988;2023-03-26T00:28:22;9.93;;;2.73;;
14139;SDS011;7150;53.514;9.988;2023-03-26T00:30:49;8.87;;;2.27;;
14139;SDS011;7150;53.514;9.988;2023-03-26T00:33:20;7.43;;;2.80;;
14139;SDS011;7150;53.514;9.988;2023-03-26T00:35:50;9.97;;;2.40;;
14139;SDS011;7150;53.514;9.988;2023-03-26T00:38:21;10.43;;;2.33;;
14139;SDS011;7150;53.514;9.988;2023-03-26T00:40:47;7.57;;;2.73;;
14139;SDS011;7150;53.514;9.988;2023-03-26T00:43:15;4.20;;;1.73;;
14139;SDS011;7150;53.514;9.988;2023-03-26T00:45:47;11.73;;;2.47;;
14139;SDS011;7150;53.514;9.988;2023-03-26T00:48:15;7.10;;;2.27;;
14139;SDS011;7150;53.514;9.988;2023-03-26T00:50:42;11.97;;;2.60;;
14139;SDS011;7150;53.514;9.988;2023-03-26T00:53:09;12.27;;;2.47;;
14139;SDS011;7150;53.514;9.988;2023-03-26T00:55:38;5.07;;;2.17;;
14139;SDS011;7150;53.514;9.988;2023-03-26T00:58:04;7.00;;;3.17;;
14139;SDS011;7150;53.514;9.988;2023-03-26T01:00:34;4.57;;;2.07;;
14139;SDS011;7150;53.514;9.988;2023-03-26T01:03:02;10.77;;;2.40;;
14139;SDS011;7150;53.514;9.988;2023-03-26T01:07:58;5.70;;;2.00;;
14139;SDS011;7150;53.514;9.988;2023-03-26T01:10:43;6.83;;;2.53;;
14139;SDS011;7150;53.514;9.988;2023-03-26T01:13:14;6.70;;;2.23;;
14139;SDS011;7150;53.514;9.988;2023-03-26T01:15:41;6.80;;;1.80;;
14139;SDS011;7150;53.514;9.988;2023-03-26T01:18:08;7.13;;;1.93;;
14139;SDS011;7150;53.514;9.988;2023-03-26T01:20:34;5.20;;;1.60;;
14139;SDS011;7150;53.514;9.988;2023-03-26T01:23:10;6.50;;;2.63;;
14139;SDS011;7150;53.514;9.988;2023-03-26T01:25:40;7.93;;;2.50;;
14139;SDS011;7150;53.514;9.988;2023-03-26T01:28:12;7.50;;;1.93;;
14139;SDS011;7150;53.514;9.988;2023-03-26T01:30:42;7.50;;;1.90;;
14139;SDS011;7150;53.514;9.988;2023-03-26T01:36:17;7.90;;;1.87;;
14139;SDS011;7150;53.514;9.988;2023-03-26T01:38:54;6.13;;;1.90;;
14139;SDS011;7150;53.514;9.988;2023-03-26T01:46:50;7.77;;;2.10;;
14139;SDS011;7150;53.514;9.988;2023-03-26T01:49:17;9.70;;;2.60;;
14139;SDS011;7150;53.514;9.988;2023-03-26T01:51:42;7.03;;;2.80;;
14139;SDS011;7150;53.514;9.988;2023-03-26T01:54:18;9.47;;;2.00;;
14139;SDS011;7150;53.514;9.988;2023-03-26T01:59:42;6.67;;;2.43;;
14139;SDS011;7150;53.514;9.988;2023-03-26T02:02:13;11.20;;;2.40;;
14139;SDS011;7150;53.514;9.988;2023-03-26T02:04:56;10.63;;;2.13;;
14139;SDS011;7150;53.514;9.988;2023-03-26T02:07:48;6.40;;;2.47;;
14139;SDS011;7150;53.514;9.988;2023-03-26T02:10:41;8.40;;;2.00;;
14139;SDS011;7150;53.514;9.988;2023-03-26T02:13:10;7.63;;;2.47;;
14139;SDS011;7150;53.514;9.988;2023-03-26T02:15:36;5.57;;;1.87;;
14139;SDS011;7150;53.514;9.988;2023-03-26T02:18:03;10.43;;;2.20;;
14139;SDS011;7150;53.514;9.988;2023-03-26T02:20:29;4.73;;;1.73;;
14139;SDS011;7150;53.514;9.988;2023-03-26T02:22:55;8.87;;;2.00;;
14139;SDS011;7150;53.514;9.988;2023-03-26T02:25:21;8.37;;;1.73;;
14139;SDS011;7150;53.514;9.988;2023-03-26T02:27:48;10.10;;;1.93;;
14139;SDS011;7150;53.514;9.988;2023-03-26T02:30:19;4.10;;;1.70;;
14139;SDS011;7150;53.514;9.988;2023-03-26T02:32:53;6.30;;;1.77;;
14139;SDS011;7150;53.514;9.988;2023-03-26T02:35:21;9.13;;;1.93;;
14139;SDS011;7150;53.514;9.988;2023-03-26T02:37:47;8.03;;;1.83;;
14139;SDS011;7150;53.514;9.988;2023-03-26T02:40:14;6.87;;;1.90;;
14139;SDS011;7150;53.514;9.988;2023-03-26T02:42:45;5.80;;;1.53;;
14139;SDS011;7150;53.514;9.988;2023-03-26T02:45:11;7.07;;;1.50;;
14139;SDS011;7150;53.514;9.988;2023-03-26T02:47:36;7.97;;;2.40;;
14139;SDS011;7150;53.514;9.988;2023-03-26T02:50:02;4.80;;;1.33;;
14139;SDS011;7150;53.514;9.988;2023-03-26T02:52:28;8.60;;;1.53;;
14139;SDS011;7150;53.514;9.988;2023-03-26T02:54:54;7.00;;;2.07;;
14139;SDS011;7150;53.514;9.988;2023-03-26T02:57:20;8.63;;;1.90;;
14139;SDS011;7150;53.514;9.988;2023-03-26T02:59:46;4.73;;;1.57;;
14139;SDS011;7150;53.514;9.988;2023-03-26T03:02:14;8.73;;;1.43;;
14139;SDS011;7150;53.514;9.988;2023-03-26T03:04:40;3.33;;;1.40;;
14139;SDS011;7150;53.514;9.988;2023-03-26T03:07:05;4.57;;;1.30;;
14139;SDS011;7150;53.514;9.988;2023-03-26T03:09:31;6.90;;;1.07;;
14139;SDS011;7150;53.514;9.988;2023-03-26T03:11:57;7.17;;;1.63;;
14139;SDS011;7150;53.514;9.988;2023-03-26T03:14:22;5.53;;;1.20;;
14139;SDS011;7150;53.514;9.988;2023-03-26T03:16:48;9.10;;;2.37;;
14139;SDS011;7150;53.514;9.988;2023-03-26T03:19:13;7.57;;;1.53;;
14139;SDS011;7150;53.514;9.988;2023-03-26T03:21:39;3.83;;;1.37;;
14139;SDS011;7150;53.514;9.988;2023-03-26T03:24:06;6.67;;;1.77;;
14139;SDS011;7150;53.514;9.988;2023-03-26T03:26:32;9.27;;;2.00;;
14139;SDS011;7150;53.514;9.988;2023-03-26T03:28:58;3.77;;;1.80;;
14139;SDS011;7150;53.514;9.988;2023-03-26T03:31:25;5.37;;;1.73;;
14139;SDS011;7150;53.514;9.988;2023-03-26T03:33:51;6.13;;;1.80;;
14139;SDS011;7150;53.514;9.988;2023-03-26T03:36:17;5.73;;;2.37;;
14139;SDS011;7150;53.514;9.988;2023-03-26T03:38:47;7.40;;;2.30;;
14139;SDS011;7150;53.514;9.988;2023-03-26T03:41:14;5.50;;;2.20;;
14139;SDS011;7150;53.514;9.988;2023-03-26T03:43:42;8.33;;;2.30;;
14139;SDS011;7150;53.514;9.988;2023-03-26T03:46:08;7.20;;;2.53;;
14139;SDS011;7150;53.514;9.988;2023-03-26T03:48:33;5.73;;;1.73;;
14139;SDS011;7150;53.514;9.988;2023-03-26T03:51:02;12.27;;;2.17;;
14139;SDS011;7150;53.514;9.988;2023-03-26T03:53:27;11.93;;;3.10;;
14139;SDS011;7150;53.514;9.988;2023-03-26T03:55:54;8.03;;;2.20;;
14139;SDS011;7150;53.514;9.988;2023-03-26T03:58:21;11.93;;;2.40;;
14139;SDS011;7150;53.514;9.988;2023-03-26T04:00:48;7.63;;;2.00;;
14139;SDS011;7150;53.514;9.988;2023-03-26T04:03:15;11.23;;;1.97;;
14139;SDS011;7150;53.514;9.988;2023-03-26T04:05:41;7.63;;;2.70;;
14139;SDS011;7150;53.514;9.988;2023-03-26T04:08:13;9.27;;;1.87;;
14139;SDS011;7150;53.514;9.988;2023-03-26T04:10:42;9.67;;;1.80;;
14139;SDS011;7150;53.514;9.988;2023-03-26T04:13:09;10.10;;;2.37;;
14139;SDS011;7150;53.514;9.988;2023-03-26T04:15:35;11.77;;;2.17;;
14139;SDS011;7150;53.514;9.988;2023-03-26T04:18:01;7.17;;;1.77;;
14139;SDS011;7150;53.514;9.988;2023-03-26T04:20:26;6.73;;;1.83;;
14139;SDS011;7150;53.514;9.988;2023-03-26T04:22:52;15.00;;;2.33;;
14139;SDS011;7150;53.514;9.988;2023-03-26T04:25:18;12.20;;;2.90;;
14139;SDS011;7150;53.514;9.988;2023-03-26T04:27:44;7.83;;;2.13;;
14139;SDS011;7150;53.514;9.988;2023-03-26T04:30:11;6.50;;;2.30;;
14139;SDS011;7150;53.514;9.988;2023-03-26T04:32:43;6.97;;;2.20;;
14139;SDS011;7150;53.514;9.988;2023-03-26T04:35:11;12.00;;;2.87;;
14139;SDS011;7150;53.514;9.988;2023-03-26T04:37:39;8.60;;;1.63;;
14139;SDS011;7150;53.514;9.988;2023-03-26T04:40:06;10.80;;;2.33;;
14139;SDS011;7150;53.514;9.988;2023-03-26T04:42:36;7.90;;;2.47;;
14139;SDS011;7150;53.514;9.988;2023-03-26T04:45:05;11.17;;;2.77;;
14139;SDS011;7150;53.514;9.988;2023-03-26T04:47:32;7.57;;;1.97;;
14139;SDS011;7150;53.514;9.988;2023-03-26T04:50:01;7.47;;;1.60;;
14139;SDS011;7150;53.514;9.988;2023-03-26T04:52:27;8.23;;;2.33;;
14139;SDS011;7150;53.514;9.988;2023-03-26T04:54:53;6.87;;;2.40;;
14139;SDS011;7150;53.514;9.988;2023-03-26T04:57:20;8.90;;;2.30;;
14139;SDS011;7150;53.514;9.988;2023-03-26T04:59:51;10.27;;;2.33;;
14139;SDS011;7150;53.514;9.988;2023-03-26T05:02:17;5.57;;;1.73;;
14139;SDS011;7150;53.514;9.988;2023-03-26T05:04:42;10.77;;;2.30;;
14139;SDS011;7150;53.514;9.988;2023-03-26T05:07:15;7.63;;;2.27;;
14139;SDS011;7150;53.514;9.988;2023-03-26T05:09:43;7.77;;;1.93;;
14139;SDS011;7150;53.514;9.988;2023-03-26T05:12:08;4.47;;;1.67;;
14139;SDS011;7150;53.514;9.988;2023-03-26T05:14:34;7.70;;;1.80;;
14139;SDS011;7150;53.514;9.988;2023-03-26T05:17:00;6.27;;;1.80;;
14139;SDS011;7150;53.514;9.988;2023-03-26T05:19:29;3.80;;;1.53;;
14139;SDS011;7150;53.514;9.988;2023-03-26T05:21:55;8.40;;;2.33;;
14139;SDS011;7150;53.514;9.988;2023-03-26T05:24:21;9.63;;;1.67;;
14139;SDS011;7150;53.514;9.988;2023-03-26T05:26:48;7.93;;;1.27;;
14139;SDS011;7150;53.514;9.988;2023-03-26T05:29:14;3.23;;;1.07;;
14139;SDS011;7150;53.514;9.988;2023-03-26T05:31:41;7.40;;;1.40;;
14139;SDS011;7150;53.514;9.988;2023-03-26T05:34:08;4.57;;;1.47;;
14139;SDS011;7150;53.514;9.988;2023-03-26T05:36:34;4.83;;;1.57;;
14139;SDS011;7150;53.514;9.988;2023-03-26T05:38:59;5.87;;;1.57;;
14139;SDS011;7150;53.514;9.988;2023-03-26T05:41:25;2.97;;;1.70;;
14139;SDS011;7150;53.514;9.988;2023-03-26T05:43:50;4.93;;;1.40;;
14139;SDS011;7150;53.514;9.988;2023-03-26T05:46:16;4.07;;;1.50;;
14139;SDS011;7150;53.514;9.988;2023-03-26T05:48:44;3.63;;;1.20;;
14139;SDS011;7150;53.514;9.988;2023-03-26T05:51:09;4.97;;;1.83;;
14139;SDS011;7150;53.514;9.988;2023-03-26T05:53:36;5.13;;;1.23;;
14139;SDS011;7150;53.514;9.988;2023-03-26T05:56:01;5.00;;;1.50;;
14139;SDS011;7150;53.514;9.988;2023-03-26T05:58:29;5.60;;;1.80;;
14139;SDS011;7150;53.514;9.988;2023-03-26T06:01:00;4.20;;;1.50;;
14139;SDS011;7150;53.514;9.988;2023-03-26T06:03:33;7.60;;;1.63;;
14139;SDS011;7150;53.514;9.988;2023-03-26T06:06:00;8.77;;;1.90;;
14139;SDS011;7150;53.514;9.988;2023-03-26T06:08:27;5.53;;;1.40;;
14139;SDS011;7150;53.514;9.988;2023-03-26T06:11:00;2.40;;;1.10;;
14139;SDS011;7150;53.514;9.988;2023-03-26T06:13:28;3.47;;;1.27;;
14139;SDS011;7150;53.514;9.988;2023-03-26T06:15:54;4.03;;;1.50;;
14139;SDS011;7150;53.514;9.988;2023-03-26T06:18:22;8.13;;;2.10;;
14139;SDS011;7150;53.514;9.988;2023-03-26T06:20:48;6.43;;;1.57;;
14139;SDS011;7150;53.514;9.988;2023-03-26T06:23:13;4.93;;;1.30;;
14139;SDS011;7150;53.514;9.988;2023-03-26T06:25:39;3.00;;;1.60;;
14139;SDS011;7150;53.514;9.988;2023-03-26T06:28:05;3.93;;;1.47;;
14139;SDS011;7150;53.514;9.988;2023-03-26T06:30:31;4.93;;;1.50;;
14139;SDS011;7150;53.514;9.988;2023-03-26T06:32:56;5.97;;;1.63;;
14139;SDS011;7150;53.514;9.988;2023-03-26T06:35:22;9.40;;;2.07;;
14139;SDS011;7150;53.514;9.988;2023-03-26T06:37:48;9.83;;;1.80;;
14139;SDS011;7150;53.514;9.988;2023-03-26T06:40:13;6.13;;;1.57;;
14139;SDS011;7150;53.514;9.988;2023-03-26T06:42:39;7.03;;;1.80;;
14139;SDS011;7150;53.514;9.988;2023-03-26T06:45:05;11.80;;;1.90;;
14139;SDS011;7150;53.514;9.988;2023-03-26T06:47:31;13.43;;;1.93;;
14139;SDS011;7150;53.514;9.988;2023-03-26T06:49:56;11.90;;;2.00;;
14139;SDS011;7150;53.514;9.988;2023-03-26T06:52:22;5.33;;;1.70;;
14139;SDS011;7150;53.514;9.988;2023-03-26T06:54:47;3.87;;;1.50;;
14139;SDS011;7150;53.514;9.988;2023-03-26T06:57:13;8.33;;;2.00;;
14139;SDS011;7150;53.514;9.988;2023-03-26T06:59:38;4.50;;;1.43;;
14139;SDS011;7150;53.514;9.988;2023-03-26T07:02:04;7.63;;;1.63;;
14139;SDS011;7150;53.514;9.988;2023-03-26T07:04:29;5.17;;;1.40;;
14139;SDS011;7150;53.514;9.988;2023-03-26T07:06:55;7.93;;;1.93;;
14139;SDS011;7150;53.514;9.988;2023-03-26T07:09:20;5.43;;;2.00;;
14139;SDS011;7150;53.514;9.988;2023-03-26T07:11:46;7.27;;;1.70;;
14139;SDS011;7150;53.514;9.988;2023-03-26T07:14:11;8.27;;;1.97;;
14139;SDS011;7150;53.514;9.988;2023-03-26T07:16:37;2.83;;;1.47;;
14139;SDS011;7150;53.514;9.988;2023-03-26T07:19:02;4.10;;;1.43;;
14139;SDS011;7150;53.514;9.988;2023-03-26T07:21:28;5.10;;;2.03;;
14139;SDS011;7150;53.514;9.988;2023-03-26T07:23:53;11.07;;;1.73;;
14139;SDS011;7150;53.514;9.988;2023-03-26T07:29:38;7.37;;;1.93;;
14139;SDS011;7150;53.514;9.988;2023-03-26T07:32:15;8.80;;;1.70;;
14139;SDS011;7150;53.514;9.988;2023-03-26T07:34:51;6.47;;;2.00;;
14139;SDS011;7150;53.514;9.988;2023-03-26T07:39:56;6.93;;;1.90;;
14139;SDS011;7150;53.514;9.988;2023-03-26T07:48:18;9.83;;;2.23;;
14139;SDS011;7150;53.514;9.988;2023-03-26T07:50:46;6.27;;;1.90;;
14139;SDS011;7150;53.514;9.988;2023-03-26T07:53:12;9.80;;;2.33;;
14139;SDS011;7150;53.514;9.988;2023-03-26T07:55:45;8.40;;;2.13;;
14139;SDS011;7150;53.514;9.988;2023-03-26T08:01:17;8.23;;;1.60;;
14139;SDS011;7150;53.514;9.988;2023-03-26T08:04:09;11.07;;;2.37;;
14139;SDS011;7150;53.514;9.988;2023-03-26T08:06:57;7.23;;;2.40;;
14139;SDS011;7150;53.514;9.988;2023-03-26T08:09:53;9.30;;;2.00;;
14139;SDS011;7150;53.514;9.988;2023-03-26T08:15:05;9.30;;;2.47;;
14139;SDS011;7150;53.514;9.988;2023-03-26T08:20:52;13.10;;;2.70;;
14139;SDS011;7150;53.514;9.988;2023-03-26T08:23:28;8.60;;;2.60;;
14139;SDS011;7150;53.514;9.988;2023-03-26T08:29:17;10.43;;;2.60;;
14139;SDS011;7150;53.514;9.988;2023-03-26T08:31:50;13.87;;;2.57;;
14139;SDS011;7150;53.514;9.988;2023-03-26T08:34:16;18.00;;;3.03;;
14139;SDS011;7150;53.514;9.988;2023-03-26T08:36:42;12.47;;;2.87;;
14139;SDS011;7150;53.514;9.988;2023-03-26T08:39:07;7.73;;;2.23;;
14139;SDS011;7150;53.514;9.988;2023-03-26T08:50:17;11.13;;;3.27;;
14139;SDS011;7150;53.514;9.988;2023-03-26T08:53:01;10.70;;;2.63;;
14139;SDS011;7150;53.514;9.988;2023-03-26T08:55:47;12.20;;;3.20;;
14139;SDS011;7150;53.514;9.988;2023-03-26T09:04:00;8.43;;;2.43;;
14139;SDS011;7150;53.514;9.988;2023-03-26T09:06:59;10.63;;;2.90;;
14139;SDS011;7150;53.514;9.988;2023-03-26T09:26:23;16.53;;;2.40;;
14139;SDS011;7150;53.514;9.988;2023-03-26T09:34:58;10.73;;;2.10;;
14139;SDS011;7150;53.514;9.988;2023-03-26T09:40:20;11.10;;;2.87;;
14139;SDS011;7150;53.514;9.988;2023-03-26T09:43:32;11.83;;;2.60;;
14139;SDS011;7150;53.514;9.988;2023-03-26T09:46:33;8.53;;;2.60;;
14139;SDS011;7150;53.514;9.988;2023-03-26T10:03:03;12.10;;;2.43;;
14139;SDS011;7150;53.514;9.988;2023-03-26T10:05:43;7.63;;;2.30;;
14139;SDS011;7150;53.514;9.988;2023-03-26T10:08:24;8.50;;;2.23;;
14139;SDS011;7150;53.514;9.988;2023-03-26T10:14:20;8.57;;;2.37;;
14139;SDS011;7150;53.514;9.988;2023-03-26T10:19:48;9.37;;;2.53;;
14139;SDS011;7150;53.514;9.988;2023-03-26T10:22:58;10.50;;;2.53;;
14139;SDS011;7150;53.514;9.988;2023-03-26T10:25:53;7.60;;;1.73;;
14139;SDS011;7150;53.514;9.988;2023-03-26T10:36:34;10.43;;;1.93;;
14139;SDS011;7150;53.514;9.988;2023-03-26T10:47:18;6.53;;;2.13;;
14139;SDS011;7150;53.514;9.988;2023-03-26T10:52:51;8.57;;;2.03;;
14139;SDS011;7150;53.514;9.988;2023-03-26T10:55:36;13.10;;;2.83;;
14139;SDS011;7150;53.514;9.988;2023-03-26T11:00:41;6.67;;;1.90;;
14139;SDS011;7150;53.514;9.988;2023-03-26T11:06:03;9.00;;;2.13;;
14139;SDS011;7150;53.514;9.988;2023-03-26T11:08:47;12.43;;;2.33;;
14139;SDS011;7150;53.514;9.988;2023-03-26T11:14:42;9.07;;;2.23;;
14139;SDS011;7150;53.514;9.988;2023-03-26T11:19:56;11.90;;;3.50;;
14139;SDS011;7150;53.514;9.988;2023-03-26T11:30:58;6.63;;;2.47;;
14139;SDS011;7150;53.514;9.988;2023-03-26T11:33:33;9.83;;;2.00;;
14139;SDS011;7150;53.514;9.988;2023-03-26T11:36:05;10.30;;;2.00;;
14139;SDS011;7150;53.514;9.988;2023-03-26T11:38:35;9.77;;;2.20;;
14139;SDS011;7150;53.514;9.988;2023-03-26T11:41:03;9.80;;;2.00;;
14139;SDS011;7150;53.514;9.988;2023-03-26T11:43:37;10.10;;;3.07;;
14139;SDS011;7150;53.514;9.988;2023-03-26T11:46:03;10.00;;;2.57;;
14139;SDS011;7150;53.514;9.988;2023-03-26T11:48:44;6.03;;;2.10;;
14139;SDS011;7150;53.514;9.988;2023-03-26T11:51:24;8.57;;;2.10;;
14139;SDS011;7150;53.514;9.988;2023-03-26T11:53:55;11.17;;;2.90;;
14139;SDS011;7150;53.514;9.988;2023-03-26T11:58:58;11.63;;;2.37;;
14139;SDS011;7150;53.514;9.988;2023-03-26T12:01:43;10.77;;;2.40;;
14139;SDS011;7150;53.514;9.988;2023-03-26T12:04:15;5.43;;;2.00;;
14139;SDS011;7150;53.514;9.988;2023-03-26T12:06:57;6.70;;;1.90;;
14139;SDS011;7150;53.514;9.988;2023-03-26T12:09:30;13.47;;;2.90;;
14139;SDS011;7150;53.514;9.988;2023-03-26T12:12:00;11.50;;;2.67;;
14139;SDS011;7150;53.514;9.988;2023-03-26T12:14:28;7.40;;;2.30;;
14139;SDS011;7150;53.514;9.988;2023-03-26T12:16:59;10.47;;;2.47;;
14139;SDS011;7150;53.514;9.988;2023-03-26T12:19:42;12.80;;;2.73;;
14139;SDS011;7150;53.514;9.988;2023-03-26T12:25:19;9.67;;;2.43;;
14139;SDS011;7150;53.514;9.988;2023-03-26T12:27:57;10.37;;;1.90;;
14139;SDS011;7150;53.514;9.988;2023-03-26T12:30:33;12.87;;;2.07;;
14139;SDS011;7150;53.514;9.988;2023-03-26T12:33:03;9.37;;;1.80;;
14139;SDS011;7150;53.514;9.988;2023-03-26T12:36:19;10.57;;;2.10;;
14139;SDS011;7150;53.514;9.988;2023-03-26T12:38:49;8.23;;;2.77;;
14139;SDS011;7150;53.514;9.988;2023-03-26T12:41:16;8.83;;;2.33;;
14139;SDS011;7150;53.514;9.988;2023-03-26T12:43:47;8.73;;;2.30;;
14139;SDS011;7150;53.514;9.988;2023-03-26T12:46:21;9.77;;;2.83;;
14139;SDS011;7150;53.514;9.988;2023-03-26T12:48:48;9.63;;;2.00;;
14139;SDS011;7150;53.514;9.988;2023-03-26T12:54:33;11.60;;;2.63;;
14139;SDS011;7150;53.514;9.988;2023-03-26T13:14:12;6.10;;;2.00;;
14139;SDS011;7150;53.514;9.988;2023-03-26T13:17:07;13.13;;;2.40;;
14139;SDS011;7150;53.514;9.988;2023-03-26T13:19:53;11.40;;;2.40;;
14139;SDS011;7150;53.514;9.988;2023-03-26T13:22:38;6.17;;;2.23;;
14139;SDS011;7150;53.514;9.988;2023-03-26T13:25:35;8.30;;;2.23;;
14139;SDS011;7150;53.514;9.988;2023-03-26T13:28:14;7.63;;;2.20;;
14139;SDS011;7150;53.514;9.988;2023-03-26T13:39:04;9.03;;;3.07;;
14139;SDS011;7150;53.514;9.988;2023-03-26T13:41:46;7.57;;;2.30;;
14139;SDS011;7150;53.514;9.988;2023-03-26T13:47:07;7.20;;;1.73;;
14139;SDS011;7150;53.514;9.988;2023-03-26T13:49:39;9.83;;;3.20;;
14139;SDS011;7150;53.514;9.988;2023-03-26T13:52:25;10.27;;;2.33;;
14139;SDS011;7150;53.514;9.988;2023-03-26T13:55:05;4.80;;;1.50;;
14139;SDS011;7150;53.514;9.988;2023-03-26T13:57:49;4.10;;;1.90;;
14139;SDS011;7150;53.514;9.988;2023-03-26T14:00:25;4.90;;;1.83;;
14139;SDS011;7150;53.514;9.988;2023-03-26T14:03:03;6.80;;;2.10;;
14139;SDS011;7150;53.514;9.988;2023-03-26T14:05:38;8.00;;;1.87;;
14139;SDS011;7150;53.514;9.988;2023-03-26T14:08:14;8.43;;;1.90;;
14139;SDS011;7150;53.514;9.988;2023-03-26T14:11:03;6.77;;;1.80;;
14139;SDS011;7150;53.514;9.988;2023-03-26T14:14:09;5.80;;;1.70;;
14139;SDS011;7150;53.514;9.988;2023-03-26T14:16:33;10.27;;;2.73;;
14139;SDS011;7150;53.514;9.988;2023-03-26T14:33:05;7.70;;;2.60;;
14139;SDS011;7150;53.514;9.988;2023-03-26T14:35:57;6.47;;;2.13;;
14139;SDS011;7150;53.514;9.988;2023-03-26T14:38:33;7.00;;;2.20;;
14139;SDS011;7150;53.514;9.988;2023-03-26T14:46:37;10.90;;;2.67;;
14139;SDS011;7150;53.514;9.988;2023-03-26T14:54:40;7.17;;;2.00;;
14139;SDS011;7150;53.514;9.988;2023-03-26T14:57:20;7.00;;;2.40;;
14139;SDS011;7150;53.514;9.988;2023-03-26T15:11:56;10.77;;;2.20;;
14139;SDS011;7150;53.514;9.988;2023-03-26T15:14:39;10.07;;;2.20;;
14139;SDS011;7150;53.514;9.988;2023-03-26T15:17:35;9.50;;;2.60;;
14139;SDS011;7150;53.514;9.988;2023-03-26T15:29:28;4.27;;;2.37;;
14139;SDS011;7150;53.514;9.988;2023-03-26T15:44:08;8.67;;;2.73;;
14139;SDS011;7150;53.514;9.988;2023-03-26T15:49:11;10.60;;;2.50;;
14139;SDS011;7150;53.514;9.988;2023-03-26T16:00:41;7.00;;;2.43;;
14139;SDS011;7150;53.514;9.988;2023-03-26T16:03:23;11.63;;;2.47;;
14139;SDS011;7150;53.514;9.988;2023-03-26T16:09:14;8.90;;;2.87;;
14139;SDS011;7150;53.514;9.988;2023-03-26T16:11:53;8.90;;;2.30;;
14139;SDS011;7150;53.514;9.988;2023-03-26T16:14:37;8.17;;;2.20;;
14139;SDS011;7150;53.514;9.988;2023-03-26T16:17:16;8.87;;;1.97;;
14139;SDS011;7150;53.514;9.988;2023-03-26T16:19:48;10.30;;;1.93;;
14139;SDS011;7150;53.514;9.988;2023-03-26T16:22:34;6.90;;;2.03;;
14139;SDS011;7150;53.514;9.988;2023-03-26T16:25:21;7.10;;;2.40;;
14139;SDS011;7150;53.514;9.988;2023-03-26T16:33:36;11.13;;;3.93;;
14139;SDS011;7150;53.514;9.988;2023-03-26T16:38:46;11.50;;;4.00;;
14139;SDS011;7150;53.514;9.988;2023-03-26T16:41:26;16.13;;;6.50;;
14139;SDS011;7150;53.514;9.988;2023-03-26T16:57:17;26.87;;;11.33;;
14139;SDS011;7150;53.514;9.988;2023-03-26T16:59:56;17.63;;;6.93;;
14139;SDS011;7150;53.514;9.988;2023-03-26T17:02:33;10.00;;;2.50;;
14139;SDS011;7150;53.514;9.988;2023-03-26T17:10:33;12.67;;;4.37;;
14139;SDS011;7150;53.514;9.988;2023-03-26T17:15:42;9.67;;;3.47;;
14139;SDS011;7150;53.514;9.988;2023-03-26T17:18:25;10.10;;;3.40;;
14139;SDS011;7150;53.514;9.988;2023-03-26T17:29:20;5.50;;;2.63;;
14139;SDS011;7150;53.514;9.988;2023-03-26T17:32:14;6.77;;;2.00;;
14139;SDS011;7150;53.514;9.988;2023-03-26T17:34:51;2.90;;;1.40;;
14139;SDS011;7150;53.514;9.988;2023-03-26T17:45:01;3.53;;;1.70;;
14139;SDS011;7150;53.514;9.988;2023-03-26T17:47:35;5.47;;;2.30;;
14139;SDS011;7150;53.514;9.988;2023-03-26T17:52:58;13.03;;;4.77;;
14139;SDS011;7150;53.514;9.988;2023-03-26T17:55:28;7.97;;;3.97;;
14139;SDS011;7150;53.514;9.988;2023-03-26T17:57:57;12.47;;;5.47;;
14139;SDS011;7150;53.514;9.988;2023-03-26T18:00:31;17.20;;;6.30;;
14139;SDS011;7150;53.514;9.988;2023-03-26T18:05:53;19.37;;;7.23;;
14139;SDS011;7150;53.514;9.988;2023-03-26T18:16:35;7.13;;;3.10;;
14139;SDS011;7150;53.514;9.988;2023-03-26T18:19:10;8.20;;;3.30;;
14139;SDS011;7150;53.514;9.988;2023-03-26T18:21:53;8.00;;;2.80;;
14139;SDS011;7150;53.514;9.988;2023-03-26T18:27:03;5.63;;;2.10;;
14139;SDS011;7150;53.514;9.988;2023-03-26T18:29:37;6.23;;;1.87;;
14139;SDS011;7150;53.514;9.988;2023-03-26T18:34:35;6.97;;;2.47;;
14139;SDS011;7150;53.514;9.988;2023-03-26T18:39:39;6.50;;;2.10;;
14139;SDS011;7150;53.514;9.988;2023-03-26T18:42:08;8.30;;;2.83;;
14139;SDS011;7150;53.514;9.988;2023-03-26T18:44:43;8.97;;;2.57;;
14139;SDS011;7150;53.514;9.988;2023-03-26T18:47:13;5.47;;;1.70;;
14139;SDS011;7150;53.514;9.988;2023-03-26T18:49:40;5.03;;;1.97;;
14139;SDS011;7150;53.514;9.988;2023-03-26T18:52:08;2.60;;;1.40;;
14139;SDS011;7150;53.514;9.988;2023-03-26T18:54:39;5.60;;;1.90;;
14139;SDS011;7150;53.514;9.988;2023-03-26T18:57:08;7.00;;;2.07;;
14139;SDS011;7150;53.514;9.988;2023-03-26T18:59:35;3.00;;;1.73;;
14139;SDS011;7150;53.514;9.988;2023-03-26T19:02:09;6.37;;;1.80;;
14139;SDS011;7150;53.514;9.988;2023-03-26T19:04:37;5.50;;;1.70;;
14139;SDS011;7150;53.514;9.988;2023-03-26T19:07:05;4.10;;;1.80;;
14139;SDS011;7150;53.514;9.988;2023-03-26T19:09:35;7.47;;;1.60;;
14139;SDS011;7150;53.514;9.988;2023-03-26T19:12:06;3.63;;;1.27;;
14139;SDS011;7150;53.514;9.988;2023-03-26T19:14:54;4.23;;;1.30;;
14139;SDS011;7150;53.514;9.988;2023-03-26T19:17:26;3.23;;;1.07;;
14139;SDS011;7150;53.514;9.988;2023-03-26T19:19:55;3.30;;;1.30;;
14139;SDS011;7150;53.514;9.988;2023-03-26T19:22:21;2.27;;;1.20;;
14139;SDS011;7150;53.514;9.988;2023-03-26T19:24:48;3.77;;;1.20;;
14139;SDS011;7150;53.514;9.988;2023-03-26T19:27:16;3.07;;;1.47;;
14139;SDS011;7150;53.514;9.988;2023-03-26T19:29:43;2.97;;;1.60;;
14139;SDS011;7150;53.514;9.988;2023-03-26T19:34:43;3.00;;;1.20;;
14139;SDS011;7150;53.514;9.988;2023-03-26T19:37:24;4.27;;;0.90;;
14139;SDS011;7150;53.514;9.988;2023-03-26T19:39:51;2.63;;;1.53;;
14139;SDS011;7150;53.514;9.988;2023-03-26T19:42:20;4.87;;;1.30;;
14139;SDS011;7150;53.514;9.988;2023-03-26T19:44:50;2.63;;;1.27;;
14139;SDS011;7150;53.514;9.988;2023-03-26T19:47:18;3.33;;;1.17;;
14139;SDS011;7150;53.514;9.988;2023-03-26T19:49:53;4.43;;;1.47;;
14139;SDS011;7150;53.514;9.988;2023-03-26T19:57:41;2.93;;;1.30;;
14139;SDS011;7150;53.514;9.988;2023-03-26T20:00:07;1.53;;;0.90;;
14139;SDS011;7150;53.514;9.988;2023-03-26T20:02:38;1.37;;;0.60;;
14139;SDS011;7150;53.514;9.988;2023-03-26T20:05:05;1.67;;;0.90;;
14139;SDS011;7150;53.514;9.988;2023-03-26T20:07:42;1.90;;;0.97;;
14139;SDS011;7150;53.514;9.988;2023-03-26T20:10:08;2.13;;;0.90;;
14139;SDS011;7150;53.514;9.988;2023-03-26T20:12:35;3.10;;;0.80;;
14139;SDS011;7150;53.514;9.988;2023-03-26T20:15:01;1.97;;;0.93;;
14139;SDS011;7150;53.514;9.988;2023-03-26T20:17:42;2.83;;;1.00;;
14139;SDS011;7150;53.514;9.988;2023-03-26T20:20:08;1.83;;;1.03;;
14139;SDS011;7150;53.514;9.988;2023-03-26T20:22:37;2.00;;;0.70;;
14139;SDS011;7150;53.514;9.988;2023-03-26T20:25:19;1.53;;;0.80;;
14139;SDS011;7150;53.514;9.988;2023-03-26T20:27:54;1.77;;;0.80;;
14139;SDS011;7150;53.514;9.988;2023-03-26T20:30:20;1.27;;;0.83;;
14139;SDS011;7150;53.514;9.988;2023-03-26T20:32:46;2.90;;;1.30;;
14139;SDS011;7150;53.514;9.988;2023-03-26T20:35:19;2.13;;;0.83;;
14139;SDS011;7150;53.514;9.988;2023-03-26T20:37:46;1.27;;;0.90;;
14139;SDS011;7150;53.514;9.988;2023-03-26T20:40:12;5.00;;;1.30;;
14139;SDS011;7150;53.514;9.988;2023-03-26T20:42:39;2.67;;;1.20;;
14139;SDS011;7150;53.514;9.988;2023-03-26T20:47:39;5.03;;;1.23;;
14139;SDS011;7150;53.514;9.988;2023-03-26T20:50:05;7.63;;;1.30;;